Willow Creek, Montana
Current Conditions -  °F | °C
As of 3:56 PM on Wednesday 22 Oct 2014 (Local Time) from KBZN Reporting Station
Clear Clear  
Wind Chill: 58°   Ceiling: Unl
Heat Index: 58°   Visibility: 10mi
Dew Point: 28°   Wind: 18mph
Humidity: 32%   Direction: 260°W
Pressure: 30.02"   Gusts: 25mph
Location:  45.83°N, 111.65°W
Report Text: KBZN 222156Z 26016G22KT 10SM CLR 14/M02 A3002 RMK AO2 SLP165 T01441022
Loading
Personal Weather Stations






























Interactive Weather Map
Tropical Storm Tracking
New forecast layout! Learn more

10-Day Weather Forecast

Advertisements
Track Severe Weather on mobile